This is the latest recevied weather packets stored in our database for station/object DG1UDO-13. If no packets are shown the sender has not sent any weather packets the latest 10 day(s).
| Time | Temp. | Humidity | Pressure | Rain* | Wind** | Luminosity | Snow |
|---|---|---|---|---|---|---|---|
| 1777950301 | 7.78° C | 94% | 1012.9 hPa | - | - | - | - |
| 1777948500 | 7.78° C | 92% | 1012.9 hPa | - | - | - | - |
| 1777946701 | 8.33° C | 89% | 1013 hPa | - | - | - | - |
| 1777944901 | 8.33° C | 87% | 1013.2 hPa | - | - | - | - |
| 1777943100 | 8.33° C | 89% | 1013.4 hPa | - | - | - | - |
| 1777941300 | 8.33° C | 89% | 1013.9 hPa | - | - | - | - |
| 1777939502 | 8.89° C | 88% | 1014 hPa | - | - | - | - |
| 1777937701 | 8.89° C | 87% | 1013.8 hPa | - | - | - | - |
| 1777935900 | 8.89° C | 87% | 1013.7 hPa | - | - | - | - |
| 1777934101 | 9.44° C | 88% | 1014 hPa | - | - | - | - |
| 1777932301 | 9.44° C | 90% | 1014.2 hPa | - | - | - | - |
| 1777930501 | 10° C | 92% | 1014.2 hPa | - | - | - | - |
| 1777928701 | 10° C | 91% | 1014.1 hPa | - | - | - | - |
| 1777926901 | 10° C | 90% | 1014.2 hPa | - | - | - | - |
| 1777925100 | 10.56° C | 89% | 1014.1 hPa | - | - | - | - |
| 1777923301 | 11.67° C | 86% | 1014.1 hPa | - | - | - | - |
| 1777921501 | 12.22° C | 86% | 1014.1 hPa | - | - | - | - |
| 1777919700 | 12.78° C | 83% | 1014 hPa | - | - | - | - |
| 1777917900 | 13.33° C | 81% | 1013.9 hPa | - | - | - | - |
| 1777916100 | 13.89° C | 76% | 1013.7 hPa | - | - | - | - |
| 1777914301 | 14.44° C | 78% | 1013.6 hPa | - | - | - | - |
| 1777912500 | 15° C | 77% | 1013.7 hPa | - | - | - | - |
| 1777910700 | 15° C | 79% | 1013.9 hPa | - | - | - | - |
| 1777908900 | 15° C | 80% | 1014.1 hPa | - | - | - | - |
| 1777907100 | 16.67° C | 74% | 1013.8 hPa | - | - | - | - |
* Rain since midnight (hover to see other rain measurements)
** Current wind speed in m/s (hover to see current wind gust speed)